sensor_id;sensor_type;location;lat;lon;timestamp;pressure;altitude;pressure_sealevel;temperature;humidity
12213;BME280;6169;44.158;22.788;2022-11-20T00:02:53;100543.50;;;12.43;82.57
12213;BME280;6169;44.158;22.788;2022-11-20T00:07:56;100562.63;;;12.31;83.14
12213;BME280;6169;44.158;22.788;2022-11-20T00:12:58;100562.59;;;12.14;84.03
12213;BME280;6169;44.158;22.788;2022-11-20T00:18:02;100589.47;;;12.11;84.94
12213;BME280;6169;44.158;22.788;2022-11-20T00:23:04;100611.19;;;11.82;86.17
12213;BME280;6169;44.158;22.788;2022-11-20T00:28:07;100589.75;;;11.98;85.68
12213;BME280;6169;44.158;22.788;2022-11-20T00:33:11;100560.25;;;11.78;86.31
12213;BME280;6169;44.158;22.788;2022-11-20T00:38:13;100565.88;;;11.88;86.64
12213;BME280;6169;44.158;22.788;2022-11-20T00:43:15;100604.88;;;11.94;86.36
12213;BME280;6169;44.158;22.788;2022-11-20T00:48:19;100605.13;;;11.92;86.55
12213;BME280;6169;44.158;22.788;2022-11-20T00:53:21;100559.78;;;12.09;86.04
12213;BME280;6169;44.158;22.788;2022-11-20T00:58:25;100564.84;;;12.34;84.18
12213;BME280;6169;44.158;22.788;2022-11-20T01:03:30;100585.19;;;12.15;85.31
12213;BME280;6169;44.158;22.788;2022-11-20T01:08:34;100585.63;;;11.95;86.86
12213;BME280;6169;44.158;22.788;2022-11-20T01:13:37;100537.88;;;12.33;84.80
12213;BME280;6169;44.158;22.788;2022-11-20T01:18:44;100537.44;;;12.24;85.53
12213;BME280;6169;44.158;22.788;2022-11-20T01:23:47;100551.41;;;12.28;85.03
12213;BME280;6169;44.158;22.788;2022-11-20T01:28:50;100564.97;;;12.11;86.82
12213;BME280;6169;44.158;22.788;2022-11-20T01:33:56;100542.22;;;12.17;85.94
12213;BME280;6169;44.158;22.788;2022-11-20T01:39:01;100540.03;;;12.31;85.20
12213;BME280;6169;44.158;22.788;2022-11-20T01:44:04;100553.59;;;12.14;85.95
12213;BME280;6169;44.158;22.788;2022-11-20T01:49:13;100546.50;;;11.84;87.60
12213;BME280;6169;44.158;22.788;2022-11-20T01:54:19;100546.25;;;12.14;86.13
12213;BME280;6169;44.158;22.788;2022-11-20T01:59:24;100548.81;;;11.64;87.36
12213;BME280;6169;44.158;22.788;2022-11-20T02:04:29;100549.75;;;11.69;87.69
12213;BME280;6169;44.158;22.788;2022-11-20T02:09:31;100538.63;;;11.59;87.40
12213;BME280;6169;44.158;22.788;2022-11-20T02:14:33;100560.31;;;11.95;86.59
12213;BME280;6169;44.158;22.788;2022-11-20T02:19:37;100542.59;;;11.92;85.14
12213;BME280;6169;44.158;22.788;2022-11-20T02:24:41;100553.59;;;12.14;82.93
12213;BME280;6169;44.158;22.788;2022-11-20T02:29:49;100567.53;;;12.18;83.82
12213;BME280;6169;44.158;22.788;2022-11-20T02:34:53;100572.34;;;12.44;82.65
12213;BME280;6169;44.158;22.788;2022-11-20T02:39:57;100577.00;;;12.61;81.50
12213;BME280;6169;44.158;22.788;2022-11-20T02:44:59;100562.25;;;12.73;81.01
12213;BME280;6169;44.158;22.788;2022-11-20T02:50:01;100542.59;;;12.38;81.64
12213;BME280;6169;44.158;22.788;2022-11-20T02:55:06;100537.41;;;12.53;82.36
12213;BME280;6169;44.158;22.788;2022-11-20T03:00:10;100555.59;;;12.35;82.55
12213;BME280;6169;44.158;22.788;2022-11-20T03:05:12;100563.97;;;12.46;82.29
12213;BME280;6169;44.158;22.788;2022-11-20T03:10:16;100581.69;;;12.48;81.65
12213;BME280;6169;44.158;22.788;2022-11-20T03:15:18;100585.91;;;12.39;82.61
12213;BME280;6169;44.158;22.788;2022-11-20T03:20:20;100610.97;;;12.58;81.71
12213;BME280;6169;44.158;22.788;2022-11-20T03:25:24;100639.38;;;12.62;80.61
12213;BME280;6169;44.158;22.788;2022-11-20T03:30:26;100634.72;;;12.46;81.86
12213;BME280;6169;44.158;22.788;2022-11-20T03:35:28;100599.75;;;12.38;82.61
12213;BME280;6169;44.158;22.788;2022-11-20T03:40:33;100589.00;;;12.31;82.83
12213;BME280;6169;44.158;22.788;2022-11-20T03:45:36;100569.59;;;12.27;82.58
12213;BME280;6169;44.158;22.788;2022-11-20T03:50:38;100543.41;;;12.55;82.03
12213;BME280;6169;44.158;22.788;2022-11-20T03:55:42;100523.53;;;12.71;81.21
12213;BME280;6169;44.158;22.788;2022-11-20T04:00:44;100520.00;;;12.54;81.85
12213;BME280;6169;44.158;22.788;2022-11-20T04:05:46;100511.91;;;12.59;80.79
12213;BME280;6169;44.158;22.788;2022-11-20T04:10:50;100517.84;;;12.56;81.13
12213;BME280;6169;44.158;22.788;2022-11-20T04:15:56;100535.88;;;12.11;83.42
12213;BME280;6169;44.158;22.788;2022-11-20T04:20:59;100521.22;;;12.29;81.64
12213;BME280;6169;44.158;22.788;2022-11-20T04:26:04;100543.59;;;12.03;83.08
12213;BME280;6169;44.158;22.788;2022-11-20T04:31:08;100544.66;;;12.02;82.62
12213;BME280;6169;44.158;22.788;2022-11-20T04:36:12;100534.56;;;12.14;82.24
12213;BME280;6169;44.158;22.788;2022-11-20T04:41:18;100509.78;;;11.99;82.03
12213;BME280;6169;44.158;22.788;2022-11-20T04:46:20;100545.03;;;11.94;83.01
12213;BME280;6169;44.158;22.788;2022-11-20T04:51:23;100532.28;;;12.40;81.17
12213;BME280;6169;44.158;22.788;2022-11-20T04:56:26;100515.13;;;12.22;82.04
12213;BME280;6169;44.158;22.788;2022-11-20T05:01:29;100497.53;;;12.30;81.42
12213;BME280;6169;44.158;22.788;2022-11-20T05:06:32;100489.47;;;12.35;81.23
12213;BME280;6169;44.158;22.788;2022-11-20T05:11:35;100467.78;;;12.23;81.68
12213;BME280;6169;44.158;22.788;2022-11-20T05:16:37;100516.25;;;11.81;82.35
12213;BME280;6169;44.158;22.788;2022-11-20T05:21:39;100513.09;;;12.01;82.02
12213;BME280;6169;44.158;22.788;2022-11-20T05:26:43;100506.69;;;12.24;81.68
12213;BME280;6169;44.158;22.788;2022-11-20T05:31:45;100500.25;;;12.13;81.65
12213;BME280;6169;44.158;22.788;2022-11-20T05:36:47;100476.59;;;11.97;82.67
12213;BME280;6169;44.158;22.788;2022-11-20T05:41:51;100456.06;;;12.06;82.58
12213;BME280;6169;44.158;22.788;2022-11-20T05:47:13;100491.03;;;12.48;81.68
12213;BME280;6169;44.158;22.788;2022-11-20T05:52:15;100484.09;;;12.57;81.05
12213;BME280;6169;44.158;22.788;2022-11-20T05:57:19;100488.56;;;12.46;80.65
12213;BME280;6169;44.158;22.788;2022-11-20T06:02:21;100497.03;;;12.50;80.27
12213;BME280;6169;44.158;22.788;2022-11-20T06:07:23;100493.19;;;12.46;81.05
12213;BME280;6169;44.158;22.788;2022-11-20T06:12:27;100465.47;;;12.32;81.16
12213;BME280;6169;44.158;22.788;2022-11-20T06:17:29;100445.44;;;12.21;81.43
12213;BME280;6169;44.158;22.788;2022-11-20T06:22:32;100463.81;;;12.14;82.52
12213;BME280;6169;44.158;22.788;2022-11-20T06:27:35;100465.47;;;12.15;81.95
12213;BME280;6169;44.158;22.788;2022-11-20T06:32:38;100453.91;;;11.91;83.21
12213;BME280;6169;44.158;22.788;2022-11-20T06:37:40;100454.41;;;12.05;83.10
12213;BME280;6169;44.158;22.788;2022-11-20T06:42:44;100450.75;;;11.99;82.39
12213;BME280;6169;44.158;22.788;2022-11-20T06:47:46;100464.16;;;12.18;82.20
12213;BME280;6169;44.158;22.788;2022-11-20T06:52:48;100488.56;;;12.29;81.64
12213;BME280;6169;44.158;22.788;2022-11-20T06:57:52;100522.94;;;12.19;82.69
12213;BME280;6169;44.158;22.788;2022-11-20T07:02:54;100521.88;;;12.36;81.42
12213;BME280;6169;44.158;22.788;2022-11-20T07:07:56;100531.63;;;12.49;80.45
12213;BME280;6169;44.158;22.788;2022-11-20T07:13:00;100528.38;;;12.35;79.63
12213;BME280;6169;44.158;22.788;2022-11-20T07:18:03;100548.75;;;12.50;79.33
12213;BME280;6169;44.158;22.788;2022-11-20T07:23:05;100553.81;;;12.58;80.43
12213;BME280;6169;44.158;22.788;2022-11-20T07:28:08;100562.47;;;12.72;79.57
12213;BME280;6169;44.158;22.788;2022-11-20T07:33:11;100583.19;;;12.56;80.71
12213;BME280;6169;44.158;22.788;2022-11-20T07:38:13;100605.50;;;12.41;81.08
12213;BME280;6169;44.158;22.788;2022-11-20T07:43:17;100619.91;;;12.53;80.66
12213;BME280;6169;44.158;22.788;2022-11-20T07:48:19;100595.91;;;12.67;80.27
12213;BME280;6169;44.158;22.788;2022-11-20T07:53:21;100585.38;;;12.88;79.88
12213;BME280;6169;44.158;22.788;2022-11-20T07:58:24;100603.72;;;12.47;81.29
12213;BME280;6169;44.158;22.788;2022-11-20T08:03:27;100616.75;;;12.45;81.30
12213;BME280;6169;44.158;22.788;2022-11-20T08:08:29;100553.91;;;12.01;81.37
12213;BME280;6169;44.158;22.788;2022-11-20T08:13:33;100593.81;;;12.41;80.92
12213;BME280;6169;44.158;22.788;2022-11-20T08:18:52;100543.59;;;12.03;82.87
12213;BME280;6169;44.158;22.788;2022-11-20T08:23:54;100536.94;;;11.82;84.29
12213;BME280;6169;44.158;22.788;2022-11-20T08:28:58;100520.28;;;11.78;84.79
12213;BME280;6169;44.158;22.788;2022-11-20T08:34:00;100561.78;;;12.14;83.93
12213;BME280;6169;44.158;22.788;2022-11-20T08:39:03;100577.44;;;12.24;82.86
12213;BME280;6169;44.158;22.788;2022-11-20T08:44:07;100607.31;;;12.64;81.42
12213;BME280;6169;44.158;22.788;2022-11-20T08:49:11;100626.50;;;12.57;81.60
12213;BME280;6169;44.158;22.788;2022-11-20T08:54:14;100641.91;;;12.97;80.20
12213;BME280;6169;44.158;22.788;2022-11-20T08:59:19;100635.31;;;12.48;81.62
12213;BME280;6169;44.158;22.788;2022-11-20T09:04:21;100620.47;;;12.84;80.04
12213;BME280;6169;44.158;22.788;2022-11-20T09:09:23;100640.09;;;12.86;79.82
12213;BME280;6169;44.158;22.788;2022-11-20T09:14:27;100595.06;;;12.21;82.58
12213;BME280;6169;44.158;22.788;2022-11-20T09:19:30;100592.00;;;12.46;81.92
12213;BME280;6169;44.158;22.788;2022-11-20T09:24:32;100579.41;;;12.11;83.24
12213;BME280;6169;44.158;22.788;2022-11-20T09:29:36;100587.22;;;12.08;84.54
12213;BME280;6169;44.158;22.788;2022-11-20T09:34:38;100588.78;;;12.49;82.46
12213;BME280;6169;44.158;22.788;2022-11-20T09:39:40;100568.72;;;12.55;81.40
12213;BME280;6169;44.158;22.788;2022-11-20T09:45:09;100564.63;;;12.36;82.01
12213;BME280;6169;44.158;22.788;2022-11-20T09:50:25;100561.22;;;12.46;82.00
12213;BME280;6169;44.158;22.788;2022-11-20T09:55:34;100555.72;;;12.57;81.26
12213;BME280;6169;44.158;22.788;2022-11-20T10:00:39;100603.53;;;12.36;81.82
12213;BME280;6169;44.158;22.788;2022-11-20T10:05:44;100603.31;;;12.55;81.67
12213;BME280;6169;44.158;22.788;2022-11-20T10:10:50;100596.19;;;12.37;82.40
12213;BME280;6169;44.158;22.788;2022-11-20T10:16:11;100604.69;;;12.41;81.37
12213;BME280;6169;44.158;22.788;2022-11-20T10:21:25;100620.59;;;12.77;81.17
12213;BME280;6169;44.158;22.788;2022-11-20T10:26:35;100569.69;;;12.32;81.96
12213;BME280;6169;44.158;22.788;2022-11-20T10:31:45;100554.66;;;12.13;84.17
12213;BME280;6169;44.158;22.788;2022-11-20T10:36:54;100559.72;;;12.21;84.09
12213;BME280;6169;44.158;22.788;2022-11-20T10:41:58;100538.34;;;11.84;85.15
12213;BME280;6169;44.158;22.788;2022-11-20T10:47:03;100551.63;;;12.26;83.97
12213;BME280;6169;44.158;22.788;2022-11-20T10:52:13;100540.94;;;12.36;83.42
12213;BME280;6169;44.158;22.788;2022-11-20T10:57:29;100521.88;;;12.36;83.40
12213;BME280;6169;44.158;22.788;2022-11-20T11:02:42;100547.28;;;12.42;82.78
12213;BME280;6169;44.158;22.788;2022-11-20T11:07:45;100544.16;;;12.33;84.15
12213;BME280;6169;44.158;22.788;2022-11-20T11:12:48;100516.44;;;12.20;83.40
12213;BME280;6169;44.158;22.788;2022-11-20T11:17:51;100522.03;;;11.84;87.05
12213;BME280;6169;44.158;22.788;2022-11-20T11:22:55;100500.75;;;12.27;84.07
12213;BME280;6169;44.158;22.788;2022-11-20T11:28:00;100489.94;;;12.15;84.66
12213;BME280;6169;44.158;22.788;2022-11-20T11:33:08;100471.34;;;11.78;86.39
12213;BME280;6169;44.158;22.788;2022-11-20T11:38:14;100464.78;;;11.91;86.59
12213;BME280;6169;44.158;22.788;2022-11-20T11:43:21;100446.91;;;12.12;84.43
12213;BME280;6169;44.158;22.788;2022-11-20T11:48:55;100413.66;;;11.76;87.45
12213;BME280;6169;44.158;22.788;2022-11-20T11:53:58;100430.56;;;11.78;87.35
12213;BME280;6169;44.158;22.788;2022-11-20T11:59:06;100428.59;;;12.07;86.06
12213;BME280;6169;44.158;22.788;2022-11-20T12:04:19;100415.00;;;11.90;86.35
12213;BME280;6169;44.158;22.788;2022-11-20T12:09:25;100477.00;;;12.05;85.09
12213;BME280;6169;44.158;22.788;2022-11-20T12:14:34;100467.97;;;12.33;83.08
12213;BME280;6169;44.158;22.788;2022-11-20T12:19:38;100469.16;;;12.59;83.12
12213;BME280;6169;44.158;22.788;2022-11-20T12:24:51;100473.13;;;12.35;84.26
12213;BME280;6169;44.158;22.788;2022-11-20T12:29:59;100488.31;;;12.48;83.07
12213;BME280;6169;44.158;22.788;2022-11-20T12:35:14;100488.72;;;12.40;83.88
12213;BME280;6169;44.158;22.788;2022-11-20T12:40:28;100478.47;;;12.13;85.27
12213;BME280;6169;44.158;22.788;2022-11-20T12:45:46;100489.78;;;12.55;84.02
12213;BME280;6169;44.158;22.788;2022-11-20T12:51:07;100505.28;;;12.55;84.51
12213;BME280;6169;44.158;22.788;2022-11-20T12:56:21;100506.22;;;12.44;84.74
12213;BME280;6169;44.158;22.788;2022-11-20T13:01:32;100504.97;;;12.34;84.19
12213;BME280;6169;44.158;22.788;2022-11-20T13:06:44;100478.44;;;12.42;84.91
12213;BME280;6169;44.158;22.788;2022-11-20T13:11:50;100488.81;;;12.45;84.30
12213;BME280;6169;44.158;22.788;2022-11-20T13:16:57;100509.69;;;12.39;85.01
12213;BME280;6169;44.158;22.788;2022-11-20T13:22:02;100488.13;;;12.21;86.72
12213;BME280;6169;44.158;22.788;2022-11-20T13:27:17;100466.44;;;12.59;84.50
12213;BME280;6169;44.158;22.788;2022-11-20T13:32:21;100414.28;;;12.12;86.97
12213;BME280;6169;44.158;22.788;2022-11-20T13:37:30;100449.31;;;12.08;86.54
12213;BME280;6169;44.158;22.788;2022-11-20T13:42:35;100485.91;;;12.68;85.38
12213;BME280;6169;44.158;22.788;2022-11-20T13:47:47;100486.38;;;12.99;83.79
12213;BME280;6169;44.158;22.788;2022-11-20T13:52:55;100494.13;;;13.07;82.58
12213;BME280;6169;44.158;22.788;2022-11-20T13:58:12;100480.66;;;13.00;82.69
12213;BME280;6169;44.158;22.788;2022-11-20T14:03:21;100473.88;;;12.81;83.66
12213;BME280;6169;44.158;22.788;2022-11-20T14:08:30;100479.97;;;12.54;84.25
12213;BME280;6169;44.158;22.788;2022-11-20T14:13:34;100481.13;;;12.92;82.75
12213;BME280;6169;44.158;22.788;2022-11-20T14:18:36;100478.41;;;12.75;83.05
12213;BME280;6169;44.158;22.788;2022-11-20T14:23:40;100495.63;;;12.98;82.16
12213;BME280;6169;44.158;22.788;2022-11-20T14:28:42;100488.72;;;12.56;84.61
12213;BME280;6169;44.158;22.788;2022-11-20T14:33:49;100479.66;;;12.85;82.87
12213;BME280;6169;44.158;22.788;2022-11-20T14:38:53;100470.31;;;12.64;83.81
12213;BME280;6169;44.158;22.788;2022-11-20T14:43:57;100461.41;;;12.51;84.72
12213;BME280;6169;44.158;22.788;2022-11-20T14:49:01;100468.88;;;12.39;85.12
12213;BME280;6169;44.158;22.788;2022-11-20T14:54:10;100453.84;;;12.36;85.18
12213;BME280;6169;44.158;22.788;2022-11-20T14:59:23;100453.84;;;12.36;84.98
12213;BME280;6169;44.158;22.788;2022-11-20T15:04:25;100443.94;;;11.97;87.18
12213;BME280;6169;44.158;22.788;2022-11-20T15:09:28;100449.31;;;12.25;86.50
12213;BME280;6169;44.158;22.788;2022-11-20T15:14:31;100443.38;;;11.66;88.60
12213;BME280;6169;44.158;22.788;2022-11-20T15:19:34;100423.91;;;11.86;88.61
12213;BME280;6169;44.158;22.788;2022-11-20T15:24:39;100397.03;;;11.44;90.39
12213;BME280;6169;44.158;22.788;2022-11-20T15:29:42;100399.59;;;11.67;90.12
12213;BME280;6169;44.158;22.788;2022-11-20T15:34:44;100402.88;;;11.53;91.00
12213;BME280;6169;44.158;22.788;2022-11-20T15:39:48;100411.53;;;11.78;89.31
12213;BME280;6169;44.158;22.788;2022-11-20T15:44:50;100434.31;;;12.06;87.65
12213;BME280;6169;44.158;22.788;2022-11-20T15:49:52;100439.81;;;12.45;85.28
12213;BME280;6169;44.158;22.788;2022-11-20T15:54:56;100430.97;;;11.87;87.54
12213;BME280;6169;44.158;22.788;2022-11-20T15:59:58;100420.84;;;12.16;86.67
12213;BME280;6169;44.158;22.788;2022-11-20T16:05:00;100392.19;;;12.08;86.26
12213;BME280;6169;44.158;22.788;2022-11-20T16:10:04;100418.03;;;12.62;84.13
12213;BME280;6169;44.158;22.788;2022-11-20T16:15:08;100401.59;;;12.56;85.02
12213;BME280;6169;44.158;22.788;2022-11-20T16:20:28;100395.38;;;12.39;85.67
12213;BME280;6169;44.158;22.788;2022-11-20T16:25:32;100404.22;;;12.68;84.68
12213;BME280;6169;44.158;22.788;2022-11-20T16:30:35;100412.94;;;12.87;83.69
12213;BME280;6169;44.158;22.788;2022-11-20T16:35:37;100423.19;;;12.63;84.98
12213;BME280;6169;44.158;22.788;2022-11-20T16:40:40;100406.53;;;12.76;84.88
12213;BME280;6169;44.158;22.788;2022-11-20T16:45:43;100426.22;;;12.84;84.05
12213;BME280;6169;44.158;22.788;2022-11-20T16:50:48;100431.94;;;12.82;84.10
12213;BME280;6169;44.158;22.788;2022-11-20T16:55:52;100433.94;;;12.70;83.74
12213;BME280;6169;44.158;22.788;2022-11-20T17:00:54;100423.41;;;12.40;85.78
12213;BME280;6169;44.158;22.788;2022-11-20T17:05:56;100430.91;;;12.49;85.95
12213;BME280;6169;44.158;22.788;2022-11-20T17:11:05;100422.91;;;12.43;85.61
12213;BME280;6169;44.158;22.788;2022-11-20T17:16:09;100414.00;;;12.47;85.50
12213;BME280;6169;44.158;22.788;2022-11-20T17:21:12;100388.38;;;12.65;85.12
12213;BME280;6169;44.158;22.788;2022-11-20T17:26:17;100393.00;;;12.65;84.28
12213;BME280;6169;44.158;22.788;2022-11-20T17:31:21;100369.59;;;12.47;86.64
12213;BME280;6169;44.158;22.788;2022-11-20T17:36:23;100370.53;;;12.35;86.60
12213;BME280;6169;44.158;22.788;2022-11-20T17:41:28;100371.38;;;12.36;87.19
12213;BME280;6169;44.158;22.788;2022-11-20T17:46:31;100355.78;;;12.31;87.56
12213;BME280;6169;44.158;22.788;2022-11-20T17:51:34;100341.81;;;12.06;88.31
12213;BME280;6169;44.158;22.788;2022-11-20T17:56:38;100338.72;;;12.36;87.27
12213;BME280;6169;44.158;22.788;2022-11-20T18:01:57;100349.34;;;12.38;86.43
12213;BME280;6169;44.158;22.788;2022-11-20T18:06:59;100324.09;;;12.42;86.39
12213;BME280;6169;44.158;22.788;2022-11-20T18:12:03;100319.69;;;12.36;86.77
12213;BME280;6169;44.158;22.788;2022-11-20T18:17:07;100305.59;;;12.44;86.32
12213;BME280;6169;44.158;22.788;2022-11-20T18:22:10;100307.66;;;12.15;88.33
12213;BME280;6169;44.158;22.788;2022-11-20T18:27:17;100298.66;;;12.31;87.17
12213;BME280;6169;44.158;22.788;2022-11-20T18:32:20;100222.78;;;11.74;88.28
12213;BME280;6169;44.158;22.788;2022-11-20T18:37:22;100302.56;;;12.41;87.75
12213;BME280;6169;44.158;22.788;2022-11-20T18:42:26;100304.13;;;12.53;85.62
12213;BME280;6169;44.158;22.788;2022-11-20T18:47:45;100290.66;;;12.47;86.18
12213;BME280;6169;44.158;22.788;2022-11-20T18:52:47;100303.25;;;12.75;85.75
12213;BME280;6169;44.158;22.788;2022-11-20T18:57:51;100296.19;;;12.74;85.08
12213;BME280;6169;44.158;22.788;2022-11-20T19:02:54;100315.13;;;12.64;86.71
12213;BME280;6169;44.158;22.788;2022-11-20T19:07:56;100295.16;;;13.02;84.83
12213;BME280;6169;44.158;22.788;2022-11-20T19:13:00;100278.59;;;12.82;85.47
12213;BME280;6169;44.158;22.788;2022-11-20T19:18:02;100272.50;;;12.96;84.47
12213;BME280;6169;44.158;22.788;2022-11-20T19:23:04;100306.72;;;12.87;84.87
12213;BME280;6169;44.158;22.788;2022-11-20T19:28:08;100295.81;;;13.09;84.57
12213;BME280;6169;44.158;22.788;2022-11-20T19:33:10;100316.84;;;12.70;85.51
12213;BME280;6169;44.158;22.788;2022-11-20T19:38:12;100312.75;;;12.72;86.49
12213;BME280;6169;44.158;22.788;2022-11-20T19:43:16;100302.75;;;12.34;88.31
12213;BME280;6169;44.158;22.788;2022-11-20T19:48:18;100300.44;;;12.65;87.40
12213;BME280;6169;44.158;22.788;2022-11-20T19:53:20;100289.22;;;12.61;86.26
12213;BME280;6169;44.158;22.788;2022-11-20T19:58:24;100307.81;;;12.69;87.17
12213;BME280;6169;44.158;22.788;2022-11-20T20:03:26;100312.41;;;12.86;86.06
12213;BME280;6169;44.158;22.788;2022-11-20T20:08:29;100313.28;;;12.69;87.05
12213;BME280;6169;44.158;22.788;2022-11-20T20:13:32;100311.63;;;12.68;87.32
12213;BME280;6169;44.158;22.788;2022-11-20T20:18:35;100311.91;;;12.89;86.05
12213;BME280;6169;44.158;22.788;2022-11-20T20:23:38;100315.72;;;12.88;84.96
12213;BME280;6169;44.158;22.788;2022-11-20T20:28:41;100310.19;;;12.61;86.91
12213;BME280;6169;44.158;22.788;2022-11-20T20:33:44;100300.81;;;12.73;86.83
12213;BME280;6169;44.158;22.788;2022-11-20T20:38:47;100308.63;;;12.87;86.39
12213;BME280;6169;44.158;22.788;2022-11-20T20:43:50;100298.19;;;13.06;85.44
12213;BME280;6169;44.158;22.788;2022-11-20T20:49:10;100285.81;;;12.93;85.64
12213;BME280;6169;44.158;22.788;2022-11-20T20:54:12;100292.78;;;12.84;86.74
12213;BME280;6169;44.158;22.788;2022-11-20T20:59:16;100282.97;;;12.83;86.36
12213;BME280;6169;44.158;22.788;2022-11-20T21:04:18;100265.50;;;13.06;85.30
12213;BME280;6169;44.158;22.788;2022-11-20T21:09:20;100274.97;;;12.98;85.39
12213;BME280;6169;44.158;22.788;2022-11-20T21:14:24;100265.41;;;12.95;85.98
12213;BME280;6169;44.158;22.788;2022-11-20T21:19:26;100254.00;;;12.98;85.05
12213;BME280;6169;44.158;22.788;2022-11-20T21:24:29;100249.38;;;12.99;85.30
12213;BME280;6169;44.158;22.788;2022-11-20T21:29:33;100252.31;;;12.92;86.17
12213;BME280;6169;44.158;22.788;2022-11-20T21:34:35;100244.38;;;12.91;85.89
12213;BME280;6169;44.158;22.788;2022-11-20T21:39:37;100232.75;;;13.00;85.76
12213;BME280;6169;44.158;22.788;2022-11-20T21:44:51;100223.22;;;12.98;85.65
12213;BME280;6169;44.158;22.788;2022-11-20T21:49:53;100219.19;;;13.06;85.32
12213;BME280;6169;44.158;22.788;2022-11-20T21:54:56;100220.16;;;12.94;85.68
12213;BME280;6169;44.158;22.788;2022-11-20T21:59:59;100064.09;;;11.80;86.49
12213;BME280;6169;44.158;22.788;2022-11-20T22:05:01;100205.16;;;12.92;86.12
12213;BME280;6169;44.158;22.788;2022-11-20T22:10:04;100174.72;;;13.00;85.74
12213;BME280;6169;44.158;22.788;2022-11-20T22:15:09;100157.63;;;12.77;87.52
12213;BME280;6169;44.158;22.788;2022-11-20T22:20:11;100156.53;;;13.06;85.23
12213;BME280;6169;44.158;22.788;2022-11-20T22:25:13;100131.19;;;13.05;84.79
12213;BME280;6169;44.158;22.788;2022-11-20T22:30:17;100122.09;;;12.62;87.37
12213;BME280;6169;44.158;22.788;2022-11-20T22:35:19;100098.81;;;12.76;86.22
12213;BME280;6169;44.158;22.788;2022-11-20T22:40:21;100108.00;;;12.70;87.56
12213;BME280;6169;44.158;22.788;2022-11-20T22:45:25;100107.22;;;12.75;86.75
12213;BME280;6169;44.158;22.788;2022-11-20T22:50:27;100095.25;;;12.76;87.23
12213;BME280;6169;44.158;22.788;2022-11-20T22:55:32;100085.31;;;12.87;86.87
12213;BME280;6169;44.158;22.788;2022-11-20T23:00:36;100082.06;;;12.95;85.95
12213;BME280;6169;44.158;22.788;2022-11-20T23:05:38;100072.84;;;12.96;86.86
12213;BME280;6169;44.158;22.788;2022-11-20T23:10:40;100061.91;;;12.91;86.71
12213;BME280;6169;44.158;22.788;2022-11-20T23:15:44;100052.16;;;13.00;86.34
12213;BME280;6169;44.158;22.788;2022-11-20T23:20:46;100028.91;;;12.87;86.73
12213;BME280;6169;44.158;22.788;2022-11-20T23:25:48;100000.34;;;12.90;86.87
12213;BME280;6169;44.158;22.788;2022-11-20T23:30:52;99984.53;;;12.92;86.52
12213;BME280;6169;44.158;22.788;2022-11-20T23:35:54;99969.78;;;12.83;86.62
12213;BME280;6169;44.158;22.788;2022-11-20T23:40:56;99962.22;;;12.95;86.14
12213;BME280;6169;44.158;22.788;2022-11-20T23:46:01;99937.16;;;12.88;86.98
12213;BME280;6169;44.158;22.788;2022-11-20T23:51:04;99920.66;;;12.72;87.84
12213;BME280;6169;44.158;22.788;2022-11-20T23:56:07;99929.69;;;12.73;88.26
